This is the latest recevied weather packets stored in our database for station/object OK0BPL-5. If no packets are shown the sender has not sent any weather packets the latest 10 day(s).
| Time | Temp. | Humidity | Pressure | Rain* | Wind** | Luminosity | Snow |
|---|---|---|---|---|---|---|---|
| 1787733332 | 25° C | 51% | 1041.5 hPa | 0 mm | - | 222 W/m² | - |
| 1787732432 | 25° C | 52% | 1041.7 hPa | 0 mm | - | 144 W/m² | - |
| 1787732432 | 25° C | 52% | 1041.7 hPa | 0 mm | - | 144 W/m² | - |
| 1787731532 | 21.67° C | 63% | 1042.3 hPa | 0 mm | - | 97 W/m² | - |
| 1787731532 | 21.67° C | 63% | 1042.3 hPa | 0 mm | - | 97 W/m² | - |
| 1787730632 | 20.56° C | 66% | 1042.2 hPa | 0 mm | - | 89 W/m² | - |
| 1787730632 | 20.56° C | 66% | 1042.2 hPa | 0 mm | - | 89 W/m² | - |
| 1787729732 | 20.56° C | 69% | 1042.2 hPa | 0 mm | - | 158 W/m² | - |
| 1787729732 | 20.56° C | 69% | 1042.2 hPa | 0 mm | - | 158 W/m² | - |
| 1787728832 | - | - | - | - | - | - | - |
| 1787728832 | 21.67° C | 63% | 1041.7 hPa | 0 mm | - | 121 W/m² | - |
| 1787728832 | 21.67° C | 63% | 1041.7 hPa | 0 mm | - | 121 W/m² | - |
| 1787727932 | 21.11° C | 67% | 1041.8 hPa | 0 mm | - | 109 W/m² | - |
| 1787727932 | 21.11° C | 67% | 1041.8 hPa | 0 mm | - | 109 W/m² | - |
| 1787727032 | 20.56° C | 68% | 1041.7 hPa | 0 mm | - | 93 W/m² | - |
| 1787727032 | 20.56° C | 68% | 1041.7 hPa | 0 mm | - | 93 W/m² | - |
| 1787726132 | 20.56° C | 67% | 1041.7 hPa | 0 mm | - | 78 W/m² | - |
| 1787726132 | 20.56° C | 67% | 1041.7 hPa | 0 mm | - | 78 W/m² | - |
| 1787725232 | 21.11° C | 64% | 1041.7 hPa | 0 mm | - | 68 W/m² | - |
| 1787725232 | 21.11° C | 64% | 1041.7 hPa | 0 mm | - | 68 W/m² | - |
| 1787724332 | 20° C | 71% | 1042 hPa | 0 mm | - | 57 W/m² | - |
| 1787724332 | 20° C | 71% | 1042 hPa | 0 mm | - | 57 W/m² | - |
| 1787723432 | 18.33° C | 80% | 1042.6 hPa | 0 mm | - | 47 W/m² | - |
| 1787723432 | 18.33° C | 80% | 1042.6 hPa | 0 mm | - | 47 W/m² | - |
| 1787722532 | 16.11° C | 88% | 1042.9 hPa | 0 mm | - | 26 W/m² | - |
* Rain latest hour (hover to see other rain measurements)
** Current wind speed in m/s (hover to see current wind gust speed)